Fort Wayne International Airport Fort Wayne US
ICAO: KFWA
IATA: FWA
Category: Large
Scheduled Services: Yes

Elevation: 814 ft
TransAlt. 18000 ft.

Airport Communications:
APP/DEP:127.2
ATIS:121.25
CLNC DEL:124.75
GND:121.9
122FW COMD POST OPS:138.4
TERRE HAUTE RDO:122.2
TWR:119.1
UNICOM:122.95

KFWA Zoom In..

Runways:

(A) RW 05 length 11981 ft width 150 ft
ILS 111.90 / hdg 47

(B) RW 09 length 4001 ft width 75 ft
---- / hdg 93

(C) RW 14 length 8002 ft width 150 ft
---- / hdg 138

(D) RW 23 length 11981 ft width 150 ft
---- / hdg 227

(E) RW 27 length 4001 ft width 75 ft
---- / hdg 273

(F) RW 32 length 8002 ft width 150 ft
ILS 109.90 / hdg 318

Location; KFWA
Day. 20 / Time. 20.12 Zulu
* Altimeter: 29.76
* Temperature: 22° c. 71.6°f.
* Wind from: 150° Speed 14 kn with Gusts up to 22 kn.
Dewpoint: 21° c.
Visibility: 3 Statute Miles.
Clouds: Few 1200 ft.
Clouds: Scattered 2300 ft.
Clouds: Overcast 8500 ft.
Conditions: Mist.Conditions: Thunderstorm.

KFWA 202012Z 15014G22KT 3SM +TSRA BR FEW012 SCT023CB OVC085 22/21 A2976 RMK AO2 PK WND 16026/1955 LTG DSNT ALQDS OCNL LTGICCG ALQDS TS ALQDS MOV NE P0020 T02170206


Wind From 150°
Speed 14 kn.

 
 
jpsmedia.com for Web Design worldairports.se 2018   terms of use